Terminal Aerodrome Forecast
Issued by NWS

Home | Current Version | Previous Version | Text Only | Print | Product List | Glossary On
Versions: 1 2 3 4 5 6 7 8 9 10 11 12 13 14 15 16 17 18 19 20 21
000
FTUS42 KJAX 301730
TAFCRG
TAF
KCRG 301730Z 3018/3118 13007KT 6SM -SHRA SCT020 BKN035
     FM310000 11005KT P6SM VCSH SCT025 BKN060
     FM310600 VRB03KT P6SM SCT015 BKN250
     FM311600 12006KT P6SM VCSH BKN040=

USA.gov is the U.S. government's official web portal to all federal, state and local government web resources and services.